createdAt,value
2022-11-13T00:01:24.277Z,5.50
2022-11-13T00:06:21.672Z,5.50
2022-11-13T00:11:20.620Z,5.70
2022-11-13T00:16:20.720Z,5.80
2022-11-13T00:21:19.736Z,5.80
2022-11-13T00:26:23.156Z,5.80
2022-11-13T00:31:20.956Z,5.90
2022-11-13T00:36:26.246Z,5.90
2022-11-13T00:41:24.639Z,5.90
2022-11-13T00:46:22.393Z,5.80
2022-11-13T00:51:19.986Z,5.80
2022-11-13T00:56:17.299Z,5.90
2022-11-13T01:01:17.458Z,6.00
2022-11-13T01:06:22.377Z,6.00
2022-11-13T01:11:21.277Z,6.20
2022-11-13T01:16:21.860Z,6.30
2022-11-13T01:21:22.310Z,6.30
2022-11-13T01:26:25.158Z,6.30
2022-11-13T01:31:25.406Z,6.40
2022-11-13T01:36:27.561Z,6.30
2022-11-13T01:41:34.370Z,6.20
2022-11-13T01:46:36.016Z,6.10
2022-11-13T01:51:40.204Z,6.20
2022-11-13T01:56:38.290Z,6.20
2022-11-13T02:01:36.204Z,6.20
2022-11-13T02:06:55.647Z,6.20
2022-11-13T02:11:54.269Z,6.30
2022-11-13T02:16:57.030Z,6.40
2022-11-13T02:22:28.771Z,6.40
2022-11-13T02:27:28.621Z,6.40
2022-11-13T02:32:25.934Z,6.30
2022-11-13T02:37:23.169Z,6.30
2022-11-13T02:42:20.529Z,6.30
2022-11-13T02:47:18.375Z,6.30
2022-11-13T02:52:15.664Z,6.20
2022-11-13T02:57:13.449Z,6.20
2022-11-13T03:02:10.927Z,6.30
2022-11-13T03:07:09.356Z,6.40
2022-11-13T03:12:08.716Z,6.50
2022-11-13T03:17:06.574Z,6.60
2022-11-13T03:22:03.938Z,6.60
2022-11-13T03:27:01.369Z,6.60
2022-11-13T03:32:03.553Z,6.40
2022-11-13T03:37:00.856Z,6.30
2022-11-13T03:42:02.560Z,6.60
2022-11-13T03:47:00.073Z,6.60
2022-11-13T03:51:57.615Z,6.50
2022-11-13T03:56:54.962Z,6.50
2022-11-13T04:01:52.341Z,6.50
2022-11-13T04:06:49.857Z,6.50
2022-11-13T04:11:47.057Z,6.60
2022-11-13T04:16:44.267Z,6.60
2022-11-13T04:21:41.432Z,6.70
2022-11-13T04:26:38.641Z,6.70
2022-11-13T04:31:35.901Z,6.60
2022-11-13T04:36:42.942Z,6.50
2022-11-13T04:42:00.923Z,6.40
2022-11-13T04:46:59.805Z,6.60
2022-11-13T04:51:57.316Z,6.50
2022-11-13T04:56:55.562Z,6.40
2022-11-13T05:01:55.898Z,6.50
2022-11-13T05:06:59.798Z,6.50
2022-11-13T05:11:57.482Z,6.50
2022-11-13T05:16:55.419Z,6.50
2022-11-13T05:21:55.515Z,6.50
2022-11-13T05:26:56.262Z,6.50
2022-11-13T05:31:53.553Z,6.30
2022-11-13T05:36:52.529Z,6.30
2022-11-13T05:41:50.332Z,6.20
2022-11-13T05:46:47.693Z,6.30
2022-11-13T05:51:44.956Z,6.40
2022-11-13T05:56:42.300Z,6.40
2022-11-13T06:01:40.765Z,6.30
2022-11-13T06:06:38.197Z,6.40
2022-11-13T06:11:35.487Z,6.40
2022-11-13T06:16:37.814Z,6.40
2022-11-13T06:21:39.342Z,6.40
2022-11-13T06:26:37.681Z,6.30
2022-11-13T06:31:36.937Z,6.20
2022-11-13T06:36:36.113Z,6.40
2022-11-13T06:41:33.302Z,6.40
2022-11-13T06:46:30.861Z,6.50
2022-11-13T06:51:30.772Z,6.50
2022-11-13T06:56:28.696Z,6.60
2022-11-13T07:01:27.782Z,6.60
2022-11-13T07:06:25.425Z,6.60
2022-11-13T07:11:24.177Z,6.60
2022-11-13T07:16:21.398Z,6.70
2022-11-13T07:21:19.809Z,6.60
2022-11-13T07:26:17.735Z,6.50
2022-11-13T07:31:16.545Z,6.50
2022-11-13T07:36:14.094Z,6.40
2022-11-13T07:41:11.290Z,6.40
2022-11-13T07:46:08.683Z,6.50
2022-11-13T07:51:06.080Z,6.50
2022-11-13T07:56:04.488Z,6.60
2022-11-13T08:01:03.677Z,6.60
2022-11-13T08:06:04.028Z,6.70
2022-11-13T08:11:09.685Z,6.60
2022-11-13T08:16:07.334Z,6.80
2022-11-13T08:21:10.598Z,6.80
2022-11-13T08:26:11.883Z,7.00
2022-11-13T08:31:13.782Z,7.10
2022-11-13T08:36:11.880Z,7.10
2022-11-13T08:41:09.862Z,7.20
2022-11-13T08:46:07.620Z,7.10
2022-11-13T08:51:05.018Z,7.20
2022-11-13T08:56:03.415Z,7.30
2022-11-13T09:01:02.152Z,7.40
2022-11-13T09:05:59.387Z,7.50
2022-11-13T09:10:56.648Z,7.50
2022-11-13T09:15:53.973Z,7.50
2022-11-13T09:20:51.819Z,7.50
2022-11-13T09:25:49.168Z,7.40
2022-11-13T09:30:46.408Z,7.50
2022-11-13T09:35:44.232Z,7.70
2022-11-13T09:40:48.005Z,7.60
2022-11-13T09:46:19.417Z,7.60
2022-11-13T09:51:21.988Z,7.80
2022-11-13T09:56:24.949Z,7.90
2022-11-13T10:01:43.312Z,8.10
2022-11-13T10:07:12.881Z,8.40
2022-11-13T10:12:14.123Z,8.50
2022-11-13T10:17:34.223Z,8.30
2022-11-13T10:22:54.904Z,8.60
2022-11-13T10:28:04.592Z,8.40
2022-11-13T10:33:15.148Z,8.40
2022-11-13T10:38:32.310Z,8.70
2022-11-13T10:43:29.746Z,8.70
2022-11-13T10:48:33.652Z,8.80
2022-11-13T10:53:39.711Z,8.80
2022-11-13T10:58:37.145Z,8.80
2022-11-13T11:03:34.394Z,9.00
2022-11-13T11:08:34.283Z,9.30
2022-11-13T11:13:31.639Z,9.30
2022-11-13T11:18:37.824Z,9.20
2022-11-13T11:23:50.592Z,9.30
2022-11-13T11:29:04.234Z,9.00
2022-11-13T11:34:17.224Z,9.00
2022-11-13T11:39:32.940Z,9.10
2022-11-13T11:45:02.644Z,9.20
2022-11-13T11:50:01.118Z,9.50
2022-11-13T11:55:36.915Z,9.50
2022-11-13T12:00:41.469Z,9.50
2022-11-13T12:05:45.495Z,9.30
2022-11-13T12:11:21.028Z,9.20
2022-11-13T12:16:35.746Z,9.30
2022-11-13T12:21:35.876Z,9.40
2022-11-13T12:26:45.397Z,9.50
2022-11-13T12:32:16.882Z,9.60
2022-11-13T12:37:33.976Z,9.40
2022-11-13T12:42:37.260Z,9.30
2022-11-13T12:47:36.461Z,9.20
2022-11-13T12:52:33.737Z,9.10
2022-11-13T12:57:32.571Z,8.90
2022-11-13T13:02:44.358Z,8.90
2022-11-13T13:07:59.793Z,9.00
2022-11-13T13:13:09.531Z,9.00
2022-11-13T13:18:27.141Z,9.20
2022-11-13T13:23:30.825Z,9.30
2022-11-13T13:28:28.589Z,9.30
2022-11-13T13:33:35.741Z,9.40
2022-11-13T13:38:51.920Z,9.20
2022-11-13T13:44:22.126Z,9.10
2022-11-13T13:49:22.249Z,9.10
2022-11-13T13:54:23.725Z,9.30
2022-11-13T13:59:36.141Z,9.50
2022-11-13T14:04:46.190Z,9.50
2022-11-13T14:09:43.612Z,9.40
2022-11-13T14:14:41.165Z,9.30
2022-11-13T14:19:39.123Z,9.10
2022-11-13T14:24:53.839Z,9.20
2022-11-13T14:29:55.734Z,9.10
2022-11-13T14:34:57.776Z,8.80
2022-11-13T14:39:57.557Z,8.70
2022-11-13T14:45:05.368Z,8.60
2022-11-13T14:50:14.865Z,8.50
2022-11-13T14:55:30.051Z,8.20
2022-11-13T15:00:31.081Z,8.10
2022-11-13T15:05:29.960Z,8.00
2022-11-13T15:10:29.980Z,8.20
2022-11-13T15:15:30.619Z,8.20
2022-11-13T15:20:29.496Z,8.10
2022-11-13T15:25:27.696Z,8.20
2022-11-13T15:30:25.469Z,8.30
2022-11-13T15:35:23.425Z,8.30
2022-11-13T15:40:20.937Z,8.30
2022-11-13T15:45:18.320Z,8.30
2022-11-13T15:50:16.565Z,8.20
2022-11-13T15:55:32.867Z,8.20
2022-11-13T16:00:30.371Z,8.10
2022-11-13T16:05:29.701Z,8.10
2022-11-13T16:10:27.082Z,8.10
2022-11-13T16:15:24.593Z,8.00
2022-11-13T16:20:21.872Z,8.00
2022-11-13T16:25:21.596Z,7.80
2022-11-13T16:30:21.999Z,7.90
2022-11-13T16:35:20.983Z,8.00
2022-11-13T16:40:18.191Z,7.90
2022-11-13T16:45:15.781Z,7.80
2022-11-13T16:50:24.211Z,7.80
2022-11-13T16:55:21.641Z,7.80
2022-11-13T17:00:19.933Z,7.90
2022-11-13T17:05:18.019Z,7.90
2022-11-13T17:10:34.061Z,8.00
2022-11-13T17:15:32.078Z,8.00
2022-11-13T17:20:29.374Z,8.00
2022-11-13T17:25:28.311Z,7.90
2022-11-13T17:30:25.690Z,7.70
2022-11-13T17:35:23.640Z,7.80
2022-11-13T17:40:20.903Z,7.80
2022-11-13T17:45:18.195Z,7.80
2022-11-13T17:50:15.985Z,7.90
2022-11-13T17:55:14.282Z,7.90
2022-11-13T18:00:12.115Z,8.00
2022-11-13T18:05:10.256Z,8.00
2022-11-13T18:10:08.185Z,8.10
2022-11-13T18:15:05.955Z,8.10
2022-11-13T18:20:03.438Z,8.00
2022-11-13T18:25:03.399Z,7.90
2022-11-13T18:30:01.239Z,7.90
2022-11-13T18:34:58.753Z,7.80
2022-11-13T18:39:56.262Z,7.80
2022-11-13T18:44:53.617Z,7.70
2022-11-13T18:49:50.877Z,7.70
2022-11-13T18:54:48.221Z,7.70
2022-11-13T18:59:45.567Z,7.60
2022-11-13T19:04:42.906Z,7.60
2022-11-13T19:09:45.170Z,7.80
2022-11-13T19:14:42.511Z,7.70
2022-11-13T19:19:41.935Z,7.80
2022-11-13T19:24:39.991Z,7.70
2022-11-13T19:29:37.391Z,7.60
2022-11-13T19:34:34.760Z,7.70
2022-11-13T19:39:32.191Z,7.70
2022-11-13T19:44:29.636Z,7.70
2022-11-13T19:49:26.929Z,7.60
2022-11-13T19:54:24.254Z,7.60
2022-11-13T19:59:21.475Z,7.60
2022-11-13T20:04:18.753Z,7.70
2022-11-13T20:09:15.970Z,7.60
2022-11-13T20:14:13.530Z,7.60
2022-11-13T20:19:10.843Z,7.60
2022-11-13T20:24:10.054Z,7.60
2022-11-13T20:29:08.440Z,7.60
2022-11-13T20:34:05.838Z,7.50
2022-11-13T20:39:08.974Z,7.60
2022-11-13T20:44:07.050Z,7.60
2022-11-13T20:49:04.999Z,7.70
2022-11-13T20:54:02.317Z,7.80
2022-11-13T20:59:00.033Z,7.70
2022-11-13T21:03:59.745Z,7.70
2022-11-13T21:08:58.240Z,7.70
2022-11-13T21:13:56.879Z,7.60
2022-11-13T21:18:56.235Z,7.50
2022-11-13T21:23:56.439Z,7.50
2022-11-13T21:28:54.171Z,7.50
2022-11-13T21:33:51.540Z,7.50
2022-11-13T21:38:53.295Z,7.50
2022-11-13T21:44:02.627Z,7.50
2022-11-13T21:49:05.623Z,7.60
2022-11-13T21:54:03.358Z,7.60
2022-11-13T21:59:01.048Z,7.50
2022-11-13T22:03:58.759Z,7.50
2022-11-13T22:09:04.890Z,7.50
2022-11-13T22:14:03.796Z,7.50
2022-11-13T22:19:04.328Z,7.50
2022-11-13T22:24:02.593Z,7.50
2022-11-13T22:29:00.625Z,7.60
2022-11-13T22:33:59.287Z,7.60
2022-11-13T22:38:57.737Z,7.60
2022-11-13T22:44:07.369Z,7.60
2022-11-13T22:49:06.070Z,7.60
2022-11-13T22:54:05.700Z,7.50
2022-11-13T22:59:05.540Z,7.40
2022-11-13T23:04:05.568Z,7.50
2022-11-13T23:09:03.631Z,7.50
2022-11-13T23:14:03.967Z,7.50
2022-11-13T23:19:02.088Z,7.50
2022-11-13T23:24:00.351Z,7.50
2022-11-13T23:28:58.059Z,7.50
2022-11-13T23:33:55.583Z,7.70
2022-11-13T23:38:53.757Z,7.70
2022-11-13T23:49:08.287Z,7.70
2022-11-13T23:54:05.591Z,7.70
2022-11-13T23:59:03.254Z,7.60
